Station: Hindmarsh Island  

  Atmospheric Gas Attenuation - ITU Rec 676-11   ----------------- dB/100km -----------------
Date Time Temp RH % AH g/m3 Dew Point Wind Direction Speed kph Gust kph Barometer mB Rainfall Since 9am 24GHz 47GHz 76GHz 122GHz 134GHz 241GHz
07/09 09:00 12.6 91 10.07 11.2 20 24 1030.5 0 22.8 29.4 47.4 124.5 121.9 420.3
07/09 08:50 12.6 90 9.96 11 22 28 1030.4 1.4 22.5 29.2 46.9 123.3 120.3 414.7
07/09 08:40 13 87 9.87 10.9 30 35 1030.2 1.2 22.3 28.9 46.3 121.6 118.4 408.1
07/09 08:30 13.8 84 10.01 11.1 28 35 1030 1.2 22.6 28.9 46.4 121.9 119.1 410.7
07/09 08:20 13.8 74 8.82 9.3 20 24 1030 1.2 20.0 26.9 41.4 108.6 102.7 353.4
07/09 08:10 13.8 74 8.82 9.3 19 20 1030 1.2 20.0 26.9 41.4 108.6 102.7 353.4
07/09 08:00 13.8 75 8.94 9.5 20 22 1029.9 1.2 20.3 27.1 41.9 109.9 104.3 359.1
07/09 07:50 13.7 73 8.64 9 19 20 1029.7 1.2 19.7 26.6 40.7 106.7 100.4 345.3
07/09 07:40 13.6 75 8.83 9.3 17 20 1029.6 1.2 20.1 27.0 41.6 108.9 103.1 354.7
07/09 07:30 13.4 75 8.72 9.1 17 24 1029.5 1.2 19.8 26.8 41.2 108.0 101.9 350.4
07/09 07:20 13.1 74 8.44 8.6 22 26 1029.3 1.2 19.3 26.4 40.2 105.3 98.5 338.5
07/09 07:10 12.8 75 8.4 8.5 20 24 1029.4 1.2 19.2 26.5 40.2 105.3 98.3 337.9
07/09 07:00 12.6 76 8.41 8.5 20 24 1029.2 1.2 19.2 26.5 40.3 105.7 98.7 339.2
07/09 06:50 12.5 78 8.58 8.8 19 20 1029.2 1.2 19.6 26.9 41.1 107.7 101.1 347.7
07/09 06:40 12.3 78 8.47 8.6 20 22 1029.1 1.2 19.4 26.7 40.7 106.7 99.9 343.3
07/09 06:30 12 78 8.31 8.3 19 20 1029 1.2 19.0 26.5 40.2 105.4 98.1 337.0
07/09 06:20 12.2 77 8.31 8.3 20 24 1029 1.2 19.0 26.5 40.1 105.1 97.8 336.1
07/09 06:10 12.1 77 8.26 8.2 19 24 1028.8 1.2 18.9 26.4 40.0 104.7 97.3 334.1
07/09 06:00 12.2 75 8.09 7.9 20 24 1028.9 1.2 18.6 26.1 39.2 102.7 94.9 325.7
07/09 05:50 12.4 75 8.2 8.1 22 26 1028.8 1.2 18.8 26.2 39.6 103.6 96.1 330.0
07/09 05:40 12.5 76 8.36 8.4 24 28 1028.6 1.2 19.1 26.5 40.2 105.2 98.1 337.1
07/09 05:30 12.3 79 8.58 8.8 20 26 1028.4 1.2 19.6 26.9 41.2 107.9 101.3 348.3
07/09 05:20 12.2 78 8.42 8.5 22 26 1028.4 1.2 19.3 26.6 40.6 106.2 99.3 341.2
07/09 05:10 12.1 75 8.04 7.8 24 26 1028.3 1.2 18.5 26.0 39.0 102.2 94.3 323.6
07/09 05:00 12.2 77 8.31 8.3 24 28 1028.1 1.2 19.0 26.5 40.1 105.0 97.8 335.9
07/09 04:50 12.5 76 8.36 8.4 24 28 1028.2 1.2 19.1 26.5 40.2 105.2 98.1 337.0
07/09 04:40 12.5 76 8.36 8.4 26 32 1028.1 1.2 19.1 26.4 40.1 105.1 98.1 336.9
07/09 04:30 12.5 75 8.25 8.2 26 32 1028 1.2 18.9 26.3 39.7 103.9 96.6 331.7
07/09 04:20 12.5 74 8.14 8 28 35 1028 1.2 18.7 26.1 39.2 102.7 95.1 326.6
07/09 04:10 12.4 74 8.09 7.9 28 35 1027.7 1.2 18.6 26.0 39.1 102.3 94.5 324.6
07/09 04:00 12.3 75 8.14 8 32 37 1027.7 1.2 18.7 26.1 39.3 103.0 95.3 327.3
07/09 03:50 12.5 76 8.36 8.4 30 35 1027.7 1.2 19.1 26.4 40.1 105.1 98.0 336.8
07/09 03:40 12.5 76 8.36 8.4 30 35 1027.7 1.2 19.1 26.4 40.1 105.1 98.0 336.8
07/09 03:30 12.4 75 8.2 8.1 32 37 1027.5 1.2 18.8 26.2 39.5 103.5 96.0 329.7
07/09 03:20 12.7 77 8.57 8.8 33 39 1027.4 1.2 19.6 26.7 40.9 107.1 100.6 345.8
07/09 03:10 12.6 77 8.52 8.7 30 35 1027.2 1.2 19.5 26.6 40.7 106.7 100.0 343.8
07/09 03:00 12.6 81 8.96 9.4 26 30 1027.3 1.2 20.4 27.4 42.5 111.5 106.0 364.8
07/09 02:50 12.4 84 9.18 9.8 20 26 1027.4 1.2 20.9 27.8 43.6 114.3 109.3 376.4
07/09 02:40 12.2 86 9.28 9.9 24 26 1027.3 1.2 21.1 28.1 44.1 115.7 111.0 382.3
07/09 02:30 11.9 88 9.32 10 26 33 1027.4 1.2 21.2 28.2 44.5 116.6 112.0 385.7
07/09 02:20 11.8 92 9.68 10.5 26 35 1027.3 1.2 22.0 28.9 46.1 120.9 117.3 404.0
07/09 02:10 12.1 93 9.97 11 20 20 1027.4 1.2 22.6 29.3 47.1 123.8 120.9 417.0
07/09 02:00 12.1 93 9.97 11 26 30 1027.5 1.2 22.6 29.3 47.1 123.8 121.0 417.0
07/09 01:50 11.9 94 9.96 11 26 28 1027.6 1.2 22.6 29.3 47.2 124.0 121.1 417.6
07/09 01:40 11.8 95 10 11 26 35 1027.7 1.2 22.7 29.5 47.5 124.7 121.9 420.2
07/09 01:30 11.8 94 9.89 10.9 37 43 1027.7 1.2 22.4 29.3 47.0 123.4 120.3 414.7
07/09 01:20 12.2 93 10.04 11.1 39 43 1027.4 1 22.7 29.4 47.4 124.5 121.8 419.9
07/09 01:10 12.3 94 10.21 11.4 22 28 1027.5 1 23.1 29.6 48.1 126.3 124.1 427.9
07/09 01:00 12.2 94 10.14 11.3 22 28 1027.4 1 23.0 29.6 47.8 125.6 123.2 424.9
07/09 00:50 12.2 93 10.04 11.1 28 35 1027.4 1 22.7 29.4 47.4 124.5 121.8 419.9
07/09 00:40 12.6 93 10.29 11.5 28 32 1027.3 0.8 23.3 29.7 48.2 126.7 124.7 430.2
07/09 00:30 12.4 94 10.27 11.5 26 30 1027.2 0.8 23.2 29.7 48.3 126.8 124.8 430.3
07/09 00:20 12.5 95 10.45 11.7 15 20 1027.1 0.8 23.6 30.0 49.0 128.7 127.2 438.8
07/09 00:10 12.5 95 10.45 11.7 19 20 1027.1 0.6 23.6 30.0 49.0 128.7 127.2 438.8
07/09 00:00 12 95 10.13 11.2 19 24 1027 0.6 22.9 29.6 47.9 125.8 123.4 425.4
06/09 23:50 12 95 10.13 11.2 17 26 1027 0.6 22.9 29.6 47.9 125.8 123.4 425.4
06/09 23:40 12.2 95 10.25 11.4 24 33 1027 0.6 23.2 29.7 48.3 126.9 124.8 430.4
06/09 23:30 12.4 94 10.27 11.5 19 24 1027.1 0.6 23.2 29.7 48.3 126.8 124.7 430.3
06/09 23:20 12.3 94 10.21 11.4 15 20 1027 0.6 23.1 29.6 48.0 126.2 124.0 427.8
06/09 23:10 12.3 95 10.32 11.5 13 17 1026.9 0.6 23.3 29.8 48.5 127.5 125.6 433.3
06/09 23:00 12.1 95 10.19 11.3 11 15 1026.9 0.6 23.1 29.7 48.1 126.3 124.1 427.9
06/09 22:50 11.9 94 9.96 11 13 17 1027 0.6 22.6 29.3 47.2 124.0 121.1 417.4
06/09 22:40 12 95 10.13 11.2 15 19 1027 0.4 22.9 29.6 47.9 125.8 123.4 425.4
06/09 22:30 12 95 10.13 11.2 19 24 1027.1 0.4 22.9 29.6 47.9 125.8 123.4 425.4
06/09 22:20 12 94 10.02 11.1 20 30 1027 0.4 22.7 29.4 47.4 124.5 121.8 419.9
06/09 22:10 12.3 95 10.32 11.5 17 20 1026.9 0.4 23.3 29.8 48.5 127.5 125.6 433.3
06/09 22:00 12.3 95 10.32 11.5 13 20 1026.8 0.4 23.3 29.8 48.5 127.5 125.6 433.3
06/09 21:50 12.2 95 10.25 11.4 17 20 1026.8 0.4 23.2 29.7 48.3 126.9 124.8 430.3
06/09 21:40 12.2 95 10.25 11.4 15 19 1026.6 0.4 23.2 29.7 48.3 126.8 124.7 430.2
06/09 21:30 12 95 10.13 11.2 11 15 1026.6 0.4 22.9 29.6 47.9 125.7 123.3 425.3
06/09 21:20 11.8 94 9.89 10.9 13 15 1026.5 0.4 22.4 29.2 46.9 123.3 120.2 414.3
06/09 21:10 11.9 94 9.96 11 15 17 1026.4 0.4 22.6 29.3 47.2 123.9 121.0 417.2
06/09 21:00 12.1 94 10.08 11.2 15 17 1026.3 0.4 22.8 29.4 47.6 125.0 122.4 422.1
06/09 20:50 12.3 94 10.21 11.4 15 19 1026.3 0.4 23.1 29.6 48.0 126.2 124.0 427.6
06/09 20:40 12.3 94 10.21 11.4 15 19 1026.2 0.4 23.1 29.6 48.0 126.1 124.0 427.5
06/09 20:30 12.2 94 10.14 11.3 9 15 1026.1 0.4 23.0 29.5 47.8 125.5 123.1 424.5
06/09 20:20 12.1 94 10.08 11.2 6 9 1026.1 0.4 22.8 29.4 47.6 124.9 122.4 422.0
06/09 20:10 12.2 94 10.14 11.3 15 20 1026.1 0.4 23.0 29.5 47.8 125.5 123.1 424.5
06/09 20:00 12.4 93 10.16 11.3 17 20 1026 0.2 23.0 29.5 47.7 125.4 123.1 424.4
06/09 19:50 12.5 92 10.12 11.2 17 22 1025.9 0 22.9 29.4 47.5 124.7 122.3 421.8
06/09 19:40 12.8 91 10.19 11.4 15 19 1025.8 0 23.0 29.4 47.6 125.1 122.8 423.6
06/09 19:30 12.7 90 10.02 11.1 15 17 1025.7 0 22.7 29.1 46.9 123.2 120.5 415.7
06/09 19:20 12.8 90 10.08 11.2 15 17 1025.7 0 22.8 29.2 47.1 123.8 121.2 418.1
06/09 19:10 12.7 90 10.02 11.1 13 17 1025.5 0 22.7 29.1 46.9 123.2 120.5 415.6
06/09 19:00 12.7 90 10.02 11.1 11 13 1025.5 0 22.7 29.1 46.9 123.2 120.5 415.6
06/09 18:50 12.8 91 10.19 11.4 13 15 1025.4 0 23.0 29.4 47.6 125.0 122.8 423.5
06/09 18:40 12.9 90 10.14 11.3 15 17 1025.3 0 22.9 29.2 47.3 124.3 121.9 420.4
06/09 18:30 13 90 10.21 11.4 15 20 1025.3 0 23.1 29.3 47.5 124.9 122.7 423.4
06/09 18:20 13 90 10.21 11.4 15 19 1025.1 0 23.1 29.3 47.5 124.9 122.7 423.3
06/09 18:10 13 89 10.09 11.2 17 20 1025 0 22.8 29.1 47.0 123.5 121.0 417.3
06/09 18:00 13 89 10.09 11.2 20 24 1024.9 0 22.8 29.1 47.0 123.5 121.0 417.3
06/09 17:50 13.2 88 10.1 11.3 20 24 1024.8 0 22.8 29.0 46.9 123.3 120.8 416.6
06/09 17:40 13.3 86 9.94 11 17 24 1024.7 0 22.5 28.7 46.2 121.3 118.4 408.2
06/09 17:30 13.6 83 9.77 10.8 17 20 1024.4 0 22.1 28.3 45.2 118.8 115.5 398.2
06/09 17:20 13.7 82 9.71 10.7 17 20 1024.5 0 22.0 28.2 44.9 118.0 114.5 394.8
06/09 17:10 13.8 80 9.53 10.4 17 22 1024.5 0 21.6 27.9 44.1 115.8 111.9 385.6
06/09 17:00 14 82 9.89 11 11 15 1024.4 0 22.3 28.4 45.5 119.6 116.6 402.0
06/09 16:50 13.9 81 9.71 10.7 13 15 1024.4 0 21.9 28.1 44.8 117.7 114.2 393.8
06/09 16:40 13.9 80 9.59 10.5 15 17 1024.2 0 21.7 27.9 44.3 116.3 112.6 387.9
06/09 16:30 14.1 80 9.71 10.7 17 20 1024.1 0 21.9 28.1 44.7 117.4 113.9 392.7

Last Refresh: 07-Sep-2026 09:11:26

Bureau of Meteorology